NH42 weather

C.S.S. Heliport
Nashua, New Hampshire, United States

Public forecast

Using degrees Fahrenheit for public forecast. Weather courtesy of forecast.io.

METAR (pilot weather report)

Closest report is Boire Field, 3.1 nm (5.7 km) NNW. Retrieved 2019/07/23 23:56 UTC (33 minutes ago):

KASH 232356Z 22003KT 10SM FEW110 19/17 A2991 RMK AO2 SLP133 T01940172 10222 20189 53010

TAF (pilot weather forecast)

Forecast is more than 12 hours old.

Closest forecast is Manchester-Boston Regional Airport, 11.9 nm (22.1 km) N. Retrieved 2019/07/23 00:21 UTC (1 day ago):

TAF KMHT 232320Z 2400/2424 VRB03KT P6SM SCT090 BKN200 FM241400 35005KT P6SM SCT250